sensor_id;sensor_type;location;lat;lon;timestamp;P1;durP1;ratioP1;P2;durP2;ratioP2
16890;SDS011;8562;52.246;20.966;2022-12-18T00:01:25;10.57;;;4.57;;
16890;SDS011;8562;52.246;20.966;2022-12-18T00:03:51;6.43;;;5.23;;
16890;SDS011;8562;52.246;20.966;2022-12-18T00:06:16;8.07;;;5.83;;
16890;SDS011;8562;52.246;20.966;2022-12-18T00:08:42;8.37;;;5.17;;
16890;SDS011;8562;52.246;20.966;2022-12-18T00:11:10;19.17;;;6.93;;
16890;SDS011;8562;52.246;20.966;2022-12-18T00:13:35;9.63;;;6.03;;
16890;SDS011;8562;52.246;20.966;2022-12-18T00:16:02;7.73;;;5.77;;
16890;SDS011;8562;52.246;20.966;2022-12-18T00:18:27;8.90;;;7.23;;
16890;SDS011;8562;52.246;20.966;2022-12-18T00:20:53;16.00;;;6.80;;
16890;SDS011;8562;52.246;20.966;2022-12-18T00:23:18;11.83;;;7.43;;
16890;SDS011;8562;52.246;20.966;2022-12-18T00:25:43;8.67;;;6.07;;
16890;SDS011;8562;52.246;20.966;2022-12-18T00:28:08;5.37;;;4.87;;
16890;SDS011;8562;52.246;20.966;2022-12-18T00:30:34;8.17;;;6.93;;
16890;SDS011;8562;52.246;20.966;2022-12-18T00:32:59;10.70;;;5.23;;
16890;SDS011;8562;52.246;20.966;2022-12-18T00:35:24;12.27;;;7.70;;
16890;SDS011;8562;52.246;20.966;2022-12-18T00:37:51;8.73;;;7.33;;
16890;SDS011;8562;52.246;20.966;2022-12-18T00:40:16;11.13;;;7.27;;
16890;SDS011;8562;52.246;20.966;2022-12-18T00:42:42;8.53;;;6.33;;
16890;SDS011;8562;52.246;20.966;2022-12-18T00:45:26;12.43;;;6.20;;
16890;SDS011;8562;52.246;20.966;2022-12-18T00:47:52;15.03;;;8.17;;
16890;SDS011;8562;52.246;20.966;2022-12-18T00:50:17;10.43;;;7.13;;
16890;SDS011;8562;52.246;20.966;2022-12-18T00:52:43;13.07;;;5.60;;
16890;SDS011;8562;52.246;20.966;2022-12-18T00:55:09;9.57;;;5.97;;
16890;SDS011;8562;52.246;20.966;2022-12-18T00:57:34;12.67;;;7.23;;
16890;SDS011;8562;52.246;20.966;2022-12-18T01:00:00;11.07;;;6.60;;
16890;SDS011;8562;52.246;20.966;2022-12-18T01:02:25;12.47;;;6.90;;
16890;SDS011;8562;52.246;20.966;2022-12-18T01:04:51;15.50;;;8.70;;
16890;SDS011;8562;52.246;20.966;2022-12-18T01:07:18;10.50;;;6.80;;
16890;SDS011;8562;52.246;20.966;2022-12-18T01:09:44;18.73;;;7.87;;
16890;SDS011;8562;52.246;20.966;2022-12-18T01:12:09;14.73;;;6.93;;
16890;SDS011;8562;52.246;20.966;2022-12-18T01:14:34;12.97;;;7.90;;
16890;SDS011;8562;52.246;20.966;2022-12-18T01:17:00;8.80;;;6.50;;
16890;SDS011;8562;52.246;20.966;2022-12-18T01:19:27;6.53;;;5.87;;
16890;SDS011;8562;52.246;20.966;2022-12-18T01:21:53;13.50;;;7.43;;
16890;SDS011;8562;52.246;20.966;2022-12-18T01:24:18;12.10;;;6.47;;
16890;SDS011;8562;52.246;20.966;2022-12-18T01:26:44;9.57;;;5.80;;
16890;SDS011;8562;52.246;20.966;2022-12-18T01:29:09;12.47;;;6.67;;
16890;SDS011;8562;52.246;20.966;2022-12-18T01:31:34;18.47;;;7.20;;
16890;SDS011;8562;52.246;20.966;2022-12-18T01:34:01;7.40;;;4.17;;
16890;SDS011;8562;52.246;20.966;2022-12-18T01:36:31;10.13;;;5.00;;
16890;SDS011;8562;52.246;20.966;2022-12-18T01:38:58;10.73;;;7.43;;
16890;SDS011;8562;52.246;20.966;2022-12-18T01:41:25;11.97;;;6.63;;
16890;SDS011;8562;52.246;20.966;2022-12-18T01:43:55;10.97;;;8.07;;
16890;SDS011;8562;52.246;20.966;2022-12-18T01:46:22;10.73;;;6.60;;
16890;SDS011;8562;52.246;20.966;2022-12-18T01:48:48;9.87;;;6.13;;
16890;SDS011;8562;52.246;20.966;2022-12-18T01:51:15;13.20;;;6.67;;
16890;SDS011;8562;52.246;20.966;2022-12-18T01:53:41;11.07;;;6.73;;
16890;SDS011;8562;52.246;20.966;2022-12-18T01:56:07;10.30;;;7.03;;
16890;SDS011;8562;52.246;20.966;2022-12-18T02:00:58;10.20;;;6.77;;
16890;SDS011;8562;52.246;20.966;2022-12-18T02:03:24;9.23;;;6.03;;
16890;SDS011;8562;52.246;20.966;2022-12-18T02:05:52;9.97;;;6.60;;
16890;SDS011;8562;52.246;20.966;2022-12-18T02:08:26;8.97;;;5.17;;
16890;SDS011;8562;52.246;20.966;2022-12-18T02:11:03;8.03;;;4.53;;
16890;SDS011;8562;52.246;20.966;2022-12-18T02:13:51;8.17;;;7.03;;
16890;SDS011;8562;52.246;20.966;2022-12-18T02:16:23;7.70;;;5.70;;
16890;SDS011;8562;52.246;20.966;2022-12-18T02:18:51;14.00;;;5.73;;
16890;SDS011;8562;52.246;20.966;2022-12-18T02:31:21;7.63;;;5.63;;
16890;SDS011;8562;52.246;20.966;2022-12-18T02:33:50;17.43;;;8.40;;
16890;SDS011;8562;52.246;20.966;2022-12-18T02:36:17;7.80;;;6.03;;
16890;SDS011;8562;52.246;20.966;2022-12-18T02:38:44;9.07;;;6.20;;
16890;SDS011;8562;52.246;20.966;2022-12-18T02:41:13;13.00;;;6.87;;
16890;SDS011;8562;52.246;20.966;2022-12-18T02:43:40;8.67;;;6.17;;
16890;SDS011;8562;52.246;20.966;2022-12-18T02:46:21;7.77;;;5.67;;
16890;SDS011;8562;52.246;20.966;2022-12-18T02:48:50;8.13;;;5.87;;
16890;SDS011;8562;52.246;20.966;2022-12-18T02:51:19;9.27;;;5.80;;
16890;SDS011;8562;52.246;20.966;2022-12-18T02:53:51;7.03;;;4.73;;
16890;SDS011;8562;52.246;20.966;2022-12-18T02:56:20;9.67;;;6.03;;
16890;SDS011;8562;52.246;20.966;2022-12-18T02:59:06;10.73;;;5.77;;
16890;SDS011;8562;52.246;20.966;2022-12-18T03:04:36;19.40;;;6.87;;
16890;SDS011;8562;52.246;20.966;2022-12-18T03:07:05;7.43;;;5.27;;
16890;SDS011;8562;52.246;20.966;2022-12-18T03:09:34;11.37;;;6.27;;
16890;SDS011;8562;52.246;20.966;2022-12-18T03:12:09;11.17;;;6.83;;
16890;SDS011;8562;52.246;20.966;2022-12-18T03:14:58;8.33;;;6.10;;
16890;SDS011;8562;52.246;20.966;2022-12-18T03:17:26;7.20;;;4.97;;
16890;SDS011;8562;52.246;20.966;2022-12-18T03:19:53;11.67;;;6.07;;
16890;SDS011;8562;52.246;20.966;2022-12-18T03:22:20;8.70;;;5.90;;
16890;SDS011;8562;52.246;20.966;2022-12-18T03:24:49;13.47;;;6.40;;
16890;SDS011;8562;52.246;20.966;2022-12-18T03:27:17;9.60;;;6.33;;
16890;SDS011;8562;52.246;20.966;2022-12-18T03:29:44;10.53;;;7.30;;
16890;SDS011;8562;52.246;20.966;2022-12-18T03:32:19;13.47;;;6.93;;
16890;SDS011;8562;52.246;20.966;2022-12-18T03:34:46;8.80;;;6.43;;
16890;SDS011;8562;52.246;20.966;2022-12-18T03:37:17;18.80;;;7.90;;
16890;SDS011;8562;52.246;20.966;2022-12-18T03:39:42;11.20;;;5.77;;
16890;SDS011;8562;52.246;20.966;2022-12-18T03:44:39;11.23;;;6.57;;
16890;SDS011;8562;52.246;20.966;2022-12-18T03:47:17;11.40;;;4.63;;
16890;SDS011;8562;52.246;20.966;2022-12-18T03:49:54;10.53;;;5.67;;
16890;SDS011;8562;52.246;20.966;2022-12-18T03:52:30;13.07;;;5.03;;
16890;SDS011;8562;52.246;20.966;2022-12-18T03:54:56;11.87;;;6.00;;
16890;SDS011;8562;52.246;20.966;2022-12-18T03:57:23;6.43;;;4.07;;
16890;SDS011;8562;52.246;20.966;2022-12-18T03:59:55;11.23;;;5.73;;
16890;SDS011;8562;52.246;20.966;2022-12-18T04:02:24;7.77;;;4.93;;
16890;SDS011;8562;52.246;20.966;2022-12-18T04:04:51;13.23;;;6.53;;
16890;SDS011;8562;52.246;20.966;2022-12-18T04:07:18;12.50;;;5.57;;
16890;SDS011;8562;52.246;20.966;2022-12-18T04:09:44;14.57;;;5.57;;
16890;SDS011;8562;52.246;20.966;2022-12-18T04:12:12;11.47;;;7.43;;
16890;SDS011;8562;52.246;20.966;2022-12-18T04:14:37;10.47;;;5.50;;
16890;SDS011;8562;52.246;20.966;2022-12-18T04:17:06;9.30;;;5.30;;
16890;SDS011;8562;52.246;20.966;2022-12-18T04:19:32;8.83;;;6.33;;
16890;SDS011;8562;52.246;20.966;2022-12-18T04:22:00;12.03;;;4.53;;
16890;SDS011;8562;52.246;20.966;2022-12-18T04:24:26;8.87;;;5.40;;
16890;SDS011;8562;52.246;20.966;2022-12-18T04:27:02;7.63;;;5.80;;
16890;SDS011;8562;52.246;20.966;2022-12-18T04:29:32;6.67;;;5.17;;
16890;SDS011;8562;52.246;20.966;2022-12-18T04:31:58;9.33;;;3.63;;
16890;SDS011;8562;52.246;20.966;2022-12-18T04:34:25;15.67;;;5.83;;
16890;SDS011;8562;52.246;20.966;2022-12-18T04:36:52;12.87;;;6.77;;
16890;SDS011;8562;52.246;20.966;2022-12-18T04:39:19;8.43;;;4.33;;
16890;SDS011;8562;52.246;20.966;2022-12-18T04:41:46;9.63;;;5.57;;
16890;SDS011;8562;52.246;20.966;2022-12-18T04:44:13;10.47;;;6.20;;
16890;SDS011;8562;52.246;20.966;2022-12-18T04:46:38;8.63;;;5.90;;
16890;SDS011;8562;52.246;20.966;2022-12-18T04:49:03;9.30;;;5.27;;
16890;SDS011;8562;52.246;20.966;2022-12-18T04:51:28;10.83;;;4.30;;
16890;SDS011;8562;52.246;20.966;2022-12-18T04:53:54;8.50;;;5.17;;
16890;SDS011;8562;52.246;20.966;2022-12-18T04:56:19;14.63;;;5.23;;
16890;SDS011;8562;52.246;20.966;2022-12-18T04:58:45;6.57;;;4.40;;
16890;SDS011;8562;52.246;20.966;2022-12-18T05:01:11;6.00;;;4.53;;
16890;SDS011;8562;52.246;20.966;2022-12-18T05:03:37;7.27;;;5.80;;
16890;SDS011;8562;52.246;20.966;2022-12-18T05:06:02;6.93;;;5.13;;
16890;SDS011;8562;52.246;20.966;2022-12-18T05:08:28;8.23;;;4.93;;
16890;SDS011;8562;52.246;20.966;2022-12-18T05:11:03;7.50;;;5.63;;
16890;SDS011;8562;52.246;20.966;2022-12-18T05:13:29;6.63;;;3.00;;
16890;SDS011;8562;52.246;20.966;2022-12-18T05:15:54;4.10;;;3.77;;
16890;SDS011;8562;52.246;20.966;2022-12-18T05:18:20;6.47;;;4.30;;
16890;SDS011;8562;52.246;20.966;2022-12-18T05:20:45;10.90;;;5.50;;
16890;SDS011;8562;52.246;20.966;2022-12-18T05:23:11;11.57;;;6.70;;
16890;SDS011;8562;52.246;20.966;2022-12-18T05:25:36;6.57;;;5.47;;
16890;SDS011;8562;52.246;20.966;2022-12-18T05:28:01;10.30;;;4.90;;
16890;SDS011;8562;52.246;20.966;2022-12-18T05:30:26;6.17;;;5.67;;
16890;SDS011;8562;52.246;20.966;2022-12-18T05:32:52;6.03;;;3.93;;
16890;SDS011;8562;52.246;20.966;2022-12-18T05:35:18;10.77;;;5.10;;
16890;SDS011;8562;52.246;20.966;2022-12-18T05:37:43;7.83;;;5.00;;
16890;SDS011;8562;52.246;20.966;2022-12-18T05:40:09;8.50;;;5.97;;
16890;SDS011;8562;52.246;20.966;2022-12-18T05:42:34;6.33;;;4.57;;
16890;SDS011;8562;52.246;20.966;2022-12-18T05:45:00;14.27;;;5.67;;
16890;SDS011;8562;52.246;20.966;2022-12-18T05:47:26;6.40;;;4.60;;
16890;SDS011;8562;52.246;20.966;2022-12-18T05:49:51;18.70;;;7.37;;
16890;SDS011;8562;52.246;20.966;2022-12-18T05:52:17;9.63;;;5.63;;
16890;SDS011;8562;52.246;20.966;2022-12-18T05:54:42;8.93;;;4.50;;
16890;SDS011;8562;52.246;20.966;2022-12-18T05:57:07;10.53;;;5.60;;
16890;SDS011;8562;52.246;20.966;2022-12-18T05:59:33;12.83;;;7.13;;
16890;SDS011;8562;52.246;20.966;2022-12-18T06:01:58;9.47;;;4.63;;
16890;SDS011;8562;52.246;20.966;2022-12-18T06:04:23;12.03;;;4.10;;
16890;SDS011;8562;52.246;20.966;2022-12-18T06:06:49;13.43;;;6.60;;
16890;SDS011;8562;52.246;20.966;2022-12-18T06:09:14;12.07;;;7.13;;
16890;SDS011;8562;52.246;20.966;2022-12-18T06:11:40;13.83;;;8.47;;
16890;SDS011;8562;52.246;20.966;2022-12-18T06:14:05;7.80;;;4.90;;
16890;SDS011;8562;52.246;20.966;2022-12-18T06:16:31;10.97;;;6.77;;
16890;SDS011;8562;52.246;20.966;2022-12-18T06:18:59;9.93;;;4.33;;
16890;SDS011;8562;52.246;20.966;2022-12-18T06:21:25;14.67;;;7.07;;
16890;SDS011;8562;52.246;20.966;2022-12-18T06:23:51;15.07;;;7.27;;
16890;SDS011;8562;52.246;20.966;2022-12-18T06:26:16;10.87;;;5.60;;
16890;SDS011;8562;52.246;20.966;2022-12-18T06:28:41;16.50;;;6.80;;
16890;SDS011;8562;52.246;20.966;2022-12-18T06:31:07;13.97;;;7.27;;
16890;SDS011;8562;52.246;20.966;2022-12-18T06:33:33;11.50;;;5.87;;
16890;SDS011;8562;52.246;20.966;2022-12-18T06:36:02;10.50;;;5.63;;
16890;SDS011;8562;52.246;20.966;2022-12-18T06:38:28;11.30;;;6.63;;
16890;SDS011;8562;52.246;20.966;2022-12-18T06:40:53;13.33;;;6.50;;
16890;SDS011;8562;52.246;20.966;2022-12-18T06:43:19;11.20;;;6.67;;
16890;SDS011;8562;52.246;20.966;2022-12-18T06:45:44;13.00;;;7.03;;
16890;SDS011;8562;52.246;20.966;2022-12-18T06:48:09;10.23;;;6.23;;
16890;SDS011;8562;52.246;20.966;2022-12-18T06:50:35;7.30;;;6.27;;
16890;SDS011;8562;52.246;20.966;2022-12-18T06:53:00;13.83;;;5.97;;
16890;SDS011;8562;52.246;20.966;2022-12-18T06:55:25;11.13;;;6.10;;
16890;SDS011;8562;52.246;20.966;2022-12-18T06:57:51;18.00;;;7.10;;
16890;SDS011;8562;52.246;20.966;2022-12-18T07:00:16;22.07;;;7.87;;
16890;SDS011;8562;52.246;20.966;2022-12-18T07:02:41;14.93;;;6.83;;
16890;SDS011;8562;52.246;20.966;2022-12-18T07:05:07;17.57;;;6.10;;
16890;SDS011;8562;52.246;20.966;2022-12-18T07:07:33;13.00;;;8.83;;
16890;SDS011;8562;52.246;20.966;2022-12-18T07:09:59;13.70;;;6.57;;
16890;SDS011;8562;52.246;20.966;2022-12-18T07:12:24;14.63;;;6.67;;
16890;SDS011;8562;52.246;20.966;2022-12-18T07:14:49;15.93;;;8.17;;
16890;SDS011;8562;52.246;20.966;2022-12-18T07:17:15;11.33;;;7.40;;
16890;SDS011;8562;52.246;20.966;2022-12-18T07:19:40;10.73;;;7.43;;
16890;SDS011;8562;52.246;20.966;2022-12-18T07:22:05;20.23;;;8.70;;
16890;SDS011;8562;52.246;20.966;2022-12-18T07:24:32;13.47;;;6.87;;
16890;SDS011;8562;52.246;20.966;2022-12-18T07:26:57;10.97;;;6.83;;
16890;SDS011;8562;52.246;20.966;2022-12-18T07:29:22;16.17;;;7.83;;
16890;SDS011;8562;52.246;20.966;2022-12-18T07:31:48;17.27;;;7.23;;
16890;SDS011;8562;52.246;20.966;2022-12-18T07:34:14;20.43;;;9.60;;
16890;SDS011;8562;52.246;20.966;2022-12-18T07:36:40;17.50;;;8.47;;
16890;SDS011;8562;52.246;20.966;2022-12-18T07:39:05;11.50;;;8.30;;
16890;SDS011;8562;52.246;20.966;2022-12-18T07:41:30;14.53;;;7.67;;
16890;SDS011;8562;52.246;20.966;2022-12-18T07:44:00;12.93;;;8.17;;
16890;SDS011;8562;52.246;20.966;2022-12-18T07:46:25;14.97;;;7.87;;
16890;SDS011;8562;52.246;20.966;2022-12-18T07:48:50;13.17;;;7.00;;
16890;SDS011;8562;52.246;20.966;2022-12-18T07:51:16;20.23;;;7.73;;
16890;SDS011;8562;52.246;20.966;2022-12-18T07:53:41;13.37;;;7.73;;
16890;SDS011;8562;52.246;20.966;2022-12-18T07:56:08;22.00;;;8.70;;
16890;SDS011;8562;52.246;20.966;2022-12-18T07:58:34;11.90;;;6.70;;
16890;SDS011;8562;52.246;20.966;2022-12-18T08:01:03;14.50;;;8.17;;
16890;SDS011;8562;52.246;20.966;2022-12-18T08:03:29;15.23;;;6.90;;
16890;SDS011;8562;52.246;20.966;2022-12-18T08:05:58;10.13;;;6.10;;
16890;SDS011;8562;52.246;20.966;2022-12-18T08:08:23;8.73;;;5.43;;
16890;SDS011;8562;52.246;20.966;2022-12-18T08:10:48;17.53;;;5.97;;
16890;SDS011;8562;52.246;20.966;2022-12-18T08:13:14;14.00;;;9.43;;
16890;SDS011;8562;52.246;20.966;2022-12-18T08:15:39;12.47;;;6.90;;
16890;SDS011;8562;52.246;20.966;2022-12-18T08:18:04;17.00;;;7.40;;
16890;SDS011;8562;52.246;20.966;2022-12-18T08:20:29;11.23;;;7.63;;
16890;SDS011;8562;52.246;20.966;2022-12-18T08:22:55;18.97;;;8.43;;
16890;SDS011;8562;52.246;20.966;2022-12-18T08:25:20;12.90;;;7.00;;
16890;SDS011;8562;52.246;20.966;2022-12-18T08:27:46;16.60;;;8.30;;
16890;SDS011;8562;52.246;20.966;2022-12-18T08:30:11;10.10;;;7.30;;
16890;SDS011;8562;52.246;20.966;2022-12-18T08:32:36;16.70;;;7.07;;
16890;SDS011;8562;52.246;20.966;2022-12-18T08:35:02;14.67;;;8.27;;
16890;SDS011;8562;52.246;20.966;2022-12-18T08:37:27;12.53;;;6.27;;
16890;SDS011;8562;52.246;20.966;2022-12-18T08:39:53;19.20;;;8.87;;
16890;SDS011;8562;52.246;20.966;2022-12-18T08:42:18;15.43;;;9.10;;
16890;SDS011;8562;52.246;20.966;2022-12-18T08:45:02;8.67;;;5.83;;
16890;SDS011;8562;52.246;20.966;2022-12-18T08:47:28;9.60;;;6.77;;
16890;SDS011;8562;52.246;20.966;2022-12-18T08:49:53;7.97;;;7.17;;
16890;SDS011;8562;52.246;20.966;2022-12-18T08:52:18;15.30;;;7.47;;
16890;SDS011;8562;52.246;20.966;2022-12-18T08:54:44;11.63;;;6.37;;
16890;SDS011;8562;52.246;20.966;2022-12-18T08:57:09;12.77;;;6.57;;
16890;SDS011;8562;52.246;20.966;2022-12-18T08:59:34;17.60;;;7.17;;
16890;SDS011;8562;52.246;20.966;2022-12-18T09:02:00;12.20;;;7.23;;
16890;SDS011;8562;52.246;20.966;2022-12-18T09:04:25;9.60;;;5.90;;
16890;SDS011;8562;52.246;20.966;2022-12-18T09:06:50;15.20;;;5.57;;
16890;SDS011;8562;52.246;20.966;2022-12-18T09:09:16;17.27;;;8.33;;
16890;SDS011;8562;52.246;20.966;2022-12-18T09:11:41;18.07;;;6.40;;
16890;SDS011;8562;52.246;20.966;2022-12-18T09:14:07;20.93;;;8.70;;
16890;SDS011;8562;52.246;20.966;2022-12-18T09:16:33;12.37;;;7.27;;
16890;SDS011;8562;52.246;20.966;2022-12-18T09:19:00;17.17;;;8.07;;
16890;SDS011;8562;52.246;20.966;2022-12-18T09:21:33;20.57;;;7.53;;
16890;SDS011;8562;52.246;20.966;2022-12-18T09:23:58;10.10;;;8.00;;
16890;SDS011;8562;52.246;20.966;2022-12-18T09:26:24;22.93;;;7.93;;
16890;SDS011;8562;52.246;20.966;2022-12-18T09:28:50;18.17;;;7.37;;
16890;SDS011;8562;52.246;20.966;2022-12-18T09:31:16;11.67;;;6.87;;
16890;SDS011;8562;52.246;20.966;2022-12-18T09:33:42;12.07;;;7.37;;
16890;SDS011;8562;52.246;20.966;2022-12-18T09:36:08;13.83;;;9.47;;
16890;SDS011;8562;52.246;20.966;2022-12-18T09:38:34;19.23;;;9.80;;
16890;SDS011;8562;52.246;20.966;2022-12-18T09:43:45;14.83;;;7.50;;
16890;SDS011;8562;52.246;20.966;2022-12-18T09:46:16;17.93;;;9.13;;
16890;SDS011;8562;52.246;20.966;2022-12-18T09:48:44;10.77;;;7.70;;
16890;SDS011;8562;52.246;20.966;2022-12-18T09:51:18;17.37;;;10.23;;
16890;SDS011;8562;52.246;20.966;2022-12-18T09:53:45;17.87;;;8.53;;
16890;SDS011;8562;52.246;20.966;2022-12-18T09:56:12;18.77;;;10.60;;
16890;SDS011;8562;52.246;20.966;2022-12-18T09:58:48;18.77;;;9.87;;
16890;SDS011;8562;52.246;20.966;2022-12-18T10:01:15;15.60;;;8.77;;
16890;SDS011;8562;52.246;20.966;2022-12-18T10:03:43;15.13;;;9.43;;
16890;SDS011;8562;52.246;20.966;2022-12-18T10:06:11;25.30;;;9.70;;
16890;SDS011;8562;52.246;20.966;2022-12-18T10:14:02;16.27;;;9.83;;
16890;SDS011;8562;52.246;20.966;2022-12-18T10:16:41;18.37;;;9.60;;
16890;SDS011;8562;52.246;20.966;2022-12-18T10:19:18;14.33;;;8.80;;
16890;SDS011;8562;52.246;20.966;2022-12-18T10:26:45;15.83;;;10.07;;
16890;SDS011;8562;52.246;20.966;2022-12-18T10:29:12;21.47;;;10.20;;
16890;SDS011;8562;52.246;20.966;2022-12-18T10:31:38;15.57;;;8.83;;
16890;SDS011;8562;52.246;20.966;2022-12-18T10:34:03;20.60;;;9.70;;
16890;SDS011;8562;52.246;20.966;2022-12-18T10:36:28;23.80;;;11.93;;
16890;SDS011;8562;52.246;20.966;2022-12-18T10:38:55;19.57;;;9.07;;
16890;SDS011;8562;52.246;20.966;2022-12-18T10:41:25;14.07;;;8.23;;
16890;SDS011;8562;52.246;20.966;2022-12-18T10:44:15;18.23;;;8.77;;
16890;SDS011;8562;52.246;20.966;2022-12-18T10:46:41;15.50;;;8.33;;
16890;SDS011;8562;52.246;20.966;2022-12-18T10:49:07;14.10;;;8.57;;
16890;SDS011;8562;52.246;20.966;2022-12-18T10:51:43;17.60;;;8.70;;
16890;SDS011;8562;52.246;20.966;2022-12-18T10:54:20;15.47;;;7.83;;
16890;SDS011;8562;52.246;20.966;2022-12-18T10:56:46;14.20;;;8.63;;
16890;SDS011;8562;52.246;20.966;2022-12-18T10:59:16;15.27;;;7.73;;
16890;SDS011;8562;52.246;20.966;2022-12-18T11:01:49;15.93;;;9.70;;
16890;SDS011;8562;52.246;20.966;2022-12-18T11:04:16;29.07;;;10.73;;
16890;SDS011;8562;52.246;20.966;2022-12-18T11:07:24;18.97;;;9.90;;
16890;SDS011;8562;52.246;20.966;2022-12-18T11:09:34;24.33;;;11.53;;
16890;SDS011;8562;52.246;20.966;2022-12-18T11:12:00;23.47;;;10.20;;
16890;SDS011;8562;52.246;20.966;2022-12-18T11:14:28;20.17;;;11.17;;
16890;SDS011;8562;52.246;20.966;2022-12-18T11:16:54;20.27;;;9.93;;
16890;SDS011;8562;52.246;20.966;2022-12-18T11:21:46;16.90;;;9.37;;
16890;SDS011;8562;52.246;20.966;2022-12-18T11:24:19;17.53;;;11.47;;
16890;SDS011;8562;52.246;20.966;2022-12-18T11:26:45;17.60;;;10.27;;
16890;SDS011;8562;52.246;20.966;2022-12-18T11:29:15;23.47;;;10.43;;
16890;SDS011;8562;52.246;20.966;2022-12-18T11:31:42;27.13;;;12.60;;
16890;SDS011;8562;52.246;20.966;2022-12-18T11:36:51;24.97;;;13.13;;
16890;SDS011;8562;52.246;20.966;2022-12-18T11:41:56;18.27;;;11.10;;
16890;SDS011;8562;52.246;20.966;2022-12-18T11:44:38;27.60;;;11.37;;
16890;SDS011;8562;52.246;20.966;2022-12-18T11:47:13;25.67;;;13.30;;
16890;SDS011;8562;52.246;20.966;2022-12-18T11:49:40;22.97;;;11.83;;
16890;SDS011;8562;52.246;20.966;2022-12-18T11:54:31;15.53;;;10.50;;
16890;SDS011;8562;52.246;20.966;2022-12-18T11:57:06;19.50;;;9.87;;
16890;SDS011;8562;52.246;20.966;2022-12-18T11:59:37;19.70;;;11.10;;
16890;SDS011;8562;52.246;20.966;2022-12-18T12:15:29;18.73;;;9.97;;
16890;SDS011;8562;52.246;20.966;2022-12-18T12:26:27;17.40;;;9.37;;
16890;SDS011;8562;52.246;20.966;2022-12-18T12:36:38;23.50;;;11.33;;
16890;SDS011;8562;52.246;20.966;2022-12-18T12:39:08;22.97;;;11.13;;
16890;SDS011;8562;52.246;20.966;2022-12-18T12:41:36;23.27;;;11.33;;
16890;SDS011;8562;52.246;20.966;2022-12-18T12:44:22;18.03;;;10.20;;
16890;SDS011;8562;52.246;20.966;2022-12-18T12:46:49;17.97;;;10.53;;
16890;SDS011;8562;52.246;20.966;2022-12-18T12:49:20;23.30;;;11.27;;
16890;SDS011;8562;52.246;20.966;2022-12-18T12:51:47;19.57;;;11.93;;
16890;SDS011;8562;52.246;20.966;2022-12-18T12:54:19;25.30;;;11.17;;
16890;SDS011;8562;52.246;20.966;2022-12-18T12:56:48;19.20;;;8.90;;
16890;SDS011;8562;52.246;20.966;2022-12-18T12:59:24;11.47;;;8.53;;
16890;SDS011;8562;52.246;20.966;2022-12-18T13:01:59;18.67;;;9.90;;
16890;SDS011;8562;52.246;20.966;2022-12-18T13:09:30;25.60;;;11.93;;
16890;SDS011;8562;52.246;20.966;2022-12-18T13:11:57;24.27;;;10.50;;
16890;SDS011;8562;52.246;20.966;2022-12-18T13:14:45;17.23;;;11.73;;
16890;SDS011;8562;52.246;20.966;2022-12-18T13:19:48;18.57;;;9.73;;
16890;SDS011;8562;52.246;20.966;2022-12-18T13:22:24;11.37;;;8.33;;
16890;SDS011;8562;52.246;20.966;2022-12-18T13:24:50;14.43;;;11.13;;
16890;SDS011;8562;52.246;20.966;2022-12-18T13:29:59;18.90;;;10.60;;
16890;SDS011;8562;52.246;20.966;2022-12-18T13:32:25;14.00;;;7.70;;
16890;SDS011;8562;52.246;20.966;2022-12-18T13:35:36;17.07;;;8.17;;
16890;SDS011;8562;52.246;20.966;2022-12-18T13:37:51;18.00;;;8.97;;
16890;SDS011;8562;52.246;20.966;2022-12-18T13:43:01;16.00;;;8.63;;
16890;SDS011;8562;52.246;20.966;2022-12-18T13:45:40;26.60;;;10.90;;
16890;SDS011;8562;52.246;20.966;2022-12-18T13:48:13;21.23;;;8.40;;
16890;SDS011;8562;52.246;20.966;2022-12-18T13:50:39;16.60;;;8.60;;
16890;SDS011;8562;52.246;20.966;2022-12-18T13:53:04;15.57;;;7.10;;
16890;SDS011;8562;52.246;20.966;2022-12-18T13:55:30;15.40;;;8.10;;
16890;SDS011;8562;52.246;20.966;2022-12-18T13:58:05;20.13;;;10.63;;
16890;SDS011;8562;52.246;20.966;2022-12-18T14:00:30;15.70;;;8.73;;
16890;SDS011;8562;52.246;20.966;2022-12-18T14:02:57;21.57;;;9.40;;
16890;SDS011;8562;52.246;20.966;2022-12-18T14:05:30;24.27;;;10.57;;
16890;SDS011;8562;52.246;20.966;2022-12-18T14:07:58;16.93;;;8.70;;
16890;SDS011;8562;52.246;20.966;2022-12-18T14:10:25;18.93;;;10.67;;
16890;SDS011;8562;52.246;20.966;2022-12-18T14:12:51;18.40;;;10.47;;
16890;SDS011;8562;52.246;20.966;2022-12-18T14:18:00;19.23;;;9.00;;
16890;SDS011;8562;52.246;20.966;2022-12-18T14:20:27;18.87;;;11.37;;
16890;SDS011;8562;52.246;20.966;2022-12-18T14:22:53;23.73;;;9.73;;
16890;SDS011;8562;52.246;20.966;2022-12-18T14:25:20;21.03;;;8.43;;
16890;SDS011;8562;52.246;20.966;2022-12-18T14:27:47;20.70;;;12.07;;
16890;SDS011;8562;52.246;20.966;2022-12-18T14:30:22;20.37;;;11.47;;
16890;SDS011;8562;52.246;20.966;2022-12-18T14:33:04;24.67;;;10.63;;
16890;SDS011;8562;52.246;20.966;2022-12-18T14:35:30;18.17;;;10.77;;
16890;SDS011;8562;52.246;20.966;2022-12-18T14:40:39;18.90;;;9.67;;
16890;SDS011;8562;52.246;20.966;2022-12-18T14:43:05;33.37;;;12.07;;
16890;SDS011;8562;52.246;20.966;2022-12-18T14:47:59;17.73;;;8.37;;
16890;SDS011;8562;52.246;20.966;2022-12-18T14:50:25;18.20;;;8.80;;
16890;SDS011;8562;52.246;20.966;2022-12-18T14:52:51;20.87;;;8.63;;
16890;SDS011;8562;52.246;20.966;2022-12-18T14:55:17;18.40;;;8.90;;
16890;SDS011;8562;52.246;20.966;2022-12-18T14:57:43;13.00;;;6.80;;
16890;SDS011;8562;52.246;20.966;2022-12-18T15:00:15;17.60;;;10.10;;
16890;SDS011;8562;52.246;20.966;2022-12-18T15:02:41;14.50;;;9.83;;
16890;SDS011;8562;52.246;20.966;2022-12-18T15:07:40;13.17;;;7.30;;
16890;SDS011;8562;52.246;20.966;2022-12-18T15:10:13;14.27;;;10.10;;
16890;SDS011;8562;52.246;20.966;2022-12-18T15:12:49;20.00;;;9.80;;
16890;SDS011;8562;52.246;20.966;2022-12-18T15:18:01;21.90;;;9.47;;
16890;SDS011;8562;52.246;20.966;2022-12-18T15:20:27;25.73;;;11.47;;
16890;SDS011;8562;52.246;20.966;2022-12-18T15:22:52;15.87;;;9.33;;
16890;SDS011;8562;52.246;20.966;2022-12-18T15:25:31;21.03;;;10.87;;
16890;SDS011;8562;52.246;20.966;2022-12-18T15:27:57;17.40;;;10.57;;
16890;SDS011;8562;52.246;20.966;2022-12-18T15:30:24;20.37;;;10.70;;
16890;SDS011;8562;52.246;20.966;2022-12-18T15:32:50;23.67;;;10.10;;
16890;SDS011;8562;52.246;20.966;2022-12-18T15:35:17;26.57;;;9.43;;
16890;SDS011;8562;52.246;20.966;2022-12-18T15:37:43;19.20;;;11.10;;
16890;SDS011;8562;52.246;20.966;2022-12-18T15:40:11;15.10;;;9.87;;
16890;SDS011;8562;52.246;20.966;2022-12-18T15:42:37;17.93;;;9.00;;
16890;SDS011;8562;52.246;20.966;2022-12-18T15:45:21;19.63;;;10.27;;
16890;SDS011;8562;52.246;20.966;2022-12-18T15:47:46;21.23;;;10.53;;
16890;SDS011;8562;52.246;20.966;2022-12-18T15:50:12;17.97;;;9.63;;
16890;SDS011;8562;52.246;20.966;2022-12-18T15:52:44;16.30;;;9.50;;
16890;SDS011;8562;52.246;20.966;2022-12-18T15:55:13;13.13;;;7.87;;
16890;SDS011;8562;52.246;20.966;2022-12-18T15:57:58;20.07;;;8.57;;
16890;SDS011;8562;52.246;20.966;2022-12-18T16:00:23;16.60;;;9.83;;
16890;SDS011;8562;52.246;20.966;2022-12-18T16:02:48;16.27;;;8.27;;
16890;SDS011;8562;52.246;20.966;2022-12-18T16:05:14;16.10;;;9.90;;
16890;SDS011;8562;52.246;20.966;2022-12-18T16:07:42;24.37;;;10.40;;
16890;SDS011;8562;52.246;20.966;2022-12-18T16:10:07;12.10;;;7.53;;
16890;SDS011;8562;52.246;20.966;2022-12-18T16:12:33;22.50;;;11.87;;
16890;SDS011;8562;52.246;20.966;2022-12-18T16:14:58;14.47;;;8.77;;
16890;SDS011;8562;52.246;20.966;2022-12-18T16:17:23;15.60;;;10.53;;